sensor_id;sensor_type;location;lat;lon;timestamp;P1;durP1;ratioP1;P2;durP2;ratioP2
71878;SDS011;59755;43.834;4.364;2022-08-18T00:01:07;7.82;;;5.25;;
71878;SDS011;59755;43.834;4.364;2022-08-18T00:03:34;7.57;;;5.22;;
71878;SDS011;59755;43.834;4.364;2022-08-18T00:06:00;7.30;;;4.63;;
71878;SDS011;59755;43.834;4.364;2022-08-18T00:08:26;8.32;;;5.07;;
71878;SDS011;59755;43.834;4.364;2022-08-18T00:10:53;8.43;;;5.07;;
71878;SDS011;59755;43.834;4.364;2022-08-18T00:13:20;8.85;;;5.03;;
71878;SDS011;59755;43.834;4.364;2022-08-18T00:15:45;8.82;;;5.03;;
71878;SDS011;59755;43.834;4.364;2022-08-18T00:18:11;8.63;;;5.00;;
71878;SDS011;59755;43.834;4.364;2022-08-18T00:20:38;7.75;;;4.70;;
71878;SDS011;59755;43.834;4.364;2022-08-18T00:23:05;9.68;;;5.68;;
71878;SDS011;59755;43.834;4.364;2022-08-18T00:25:31;7.95;;;4.70;;
71878;SDS011;59755;43.834;4.364;2022-08-18T00:27:57;9.23;;;4.82;;
71878;SDS011;59755;43.834;4.364;2022-08-18T00:30:22;9.50;;;5.38;;
71878;SDS011;59755;43.834;4.364;2022-08-18T00:32:50;7.90;;;4.50;;
71878;SDS011;59755;43.834;4.364;2022-08-18T00:35:31;8.80;;;4.88;;
71878;SDS011;59755;43.834;4.364;2022-08-18T00:38:00;8.00;;;4.68;;
71878;SDS011;59755;43.834;4.364;2022-08-18T00:40:29;8.65;;;4.88;;
71878;SDS011;59755;43.834;4.364;2022-08-18T00:42:59;9.93;;;5.57;;
71878;SDS011;59755;43.834;4.364;2022-08-18T00:45:30;7.75;;;5.00;;
71878;SDS011;59755;43.834;4.364;2022-08-18T00:47:58;7.03;;;4.53;;
71878;SDS011;59755;43.834;4.364;2022-08-18T00:50:31;7.80;;;4.90;;
71878;SDS011;59755;43.834;4.364;2022-08-18T00:53:04;6.78;;;4.45;;
71878;SDS011;59755;43.834;4.364;2022-08-18T00:55:36;7.30;;;4.15;;
71878;SDS011;59755;43.834;4.364;2022-08-18T00:58:12;8.10;;;4.38;;
71878;SDS011;59755;43.834;4.364;2022-08-18T01:00:43;6.97;;;4.30;;
71878;SDS011;59755;43.834;4.364;2022-08-18T01:03:13;6.93;;;4.38;;
71878;SDS011;59755;43.834;4.364;2022-08-18T01:05:42;6.63;;;3.92;;
71878;SDS011;59755;43.834;4.364;2022-08-18T01:08:14;8.05;;;4.20;;
71878;SDS011;59755;43.834;4.364;2022-08-18T01:10:41;7.57;;;4.50;;
71878;SDS011;59755;43.834;4.364;2022-08-18T01:13:08;7.32;;;4.20;;
71878;SDS011;59755;43.834;4.364;2022-08-18T01:15:34;7.38;;;4.22;;
71878;SDS011;59755;43.834;4.364;2022-08-18T01:18:03;6.88;;;3.97;;
71878;SDS011;59755;43.834;4.364;2022-08-18T01:23:46;6.97;;;4.28;;
71878;SDS011;59755;43.834;4.364;2022-08-18T01:26:14;7.53;;;4.40;;
71878;SDS011;59755;43.834;4.364;2022-08-18T01:28:42;7.35;;;3.63;;
71878;SDS011;59755;43.834;4.364;2022-08-18T01:31:11;6.70;;;3.83;;
71878;SDS011;59755;43.834;4.364;2022-08-18T01:33:52;6.90;;;4.00;;
71878;SDS011;59755;43.834;4.364;2022-08-18T01:36:19;7.45;;;4.35;;
71878;SDS011;59755;43.834;4.364;2022-08-18T01:38:46;6.68;;;3.65;;
71878;SDS011;59755;43.834;4.364;2022-08-18T01:41:15;7.53;;;4.38;;
71878;SDS011;59755;43.834;4.364;2022-08-18T01:43:41;6.57;;;3.95;;
71878;SDS011;59755;43.834;4.364;2022-08-18T01:46:07;6.90;;;4.15;;
71878;SDS011;59755;43.834;4.364;2022-08-18T01:48:33;7.32;;;3.88;;
71878;SDS011;59755;43.834;4.364;2022-08-18T01:51:04;7.03;;;4.05;;
71878;SDS011;59755;43.834;4.364;2022-08-18T01:53:31;6.60;;;3.78;;
71878;SDS011;59755;43.834;4.364;2022-08-18T01:55:57;8.63;;;4.20;;
71878;SDS011;59755;43.834;4.364;2022-08-18T01:58:23;6.45;;;4.15;;
71878;SDS011;59755;43.834;4.364;2022-08-18T02:00:59;7.18;;;4.10;;
71878;SDS011;59755;43.834;4.364;2022-08-18T02:03:29;6.28;;;4.15;;
71878;SDS011;59755;43.834;4.364;2022-08-18T02:06:09;7.47;;;4.30;;
71878;SDS011;59755;43.834;4.364;2022-08-18T02:08:36;7.27;;;4.00;;
71878;SDS011;59755;43.834;4.364;2022-08-18T02:11:02;7.38;;;4.18;;
71878;SDS011;59755;43.834;4.364;2022-08-18T02:13:29;6.82;;;3.97;;
71878;SDS011;59755;43.834;4.364;2022-08-18T02:15:55;7.97;;;4.50;;
71878;SDS011;59755;43.834;4.364;2022-08-18T02:18:22;6.82;;;4.38;;
71878;SDS011;59755;43.834;4.364;2022-08-18T02:20:51;8.32;;;4.43;;
71878;SDS011;59755;43.834;4.364;2022-08-18T02:23:18;8.77;;;4.10;;
71878;SDS011;59755;43.834;4.364;2022-08-18T02:25:43;7.97;;;4.95;;
71878;SDS011;59755;43.834;4.364;2022-08-18T02:28:09;7.63;;;4.60;;
71878;SDS011;59755;43.834;4.364;2022-08-18T02:30:35;7.70;;;4.80;;
71878;SDS011;59755;43.834;4.364;2022-08-18T02:33:04;8.13;;;4.90;;
71878;SDS011;59755;43.834;4.364;2022-08-18T02:35:31;9.32;;;5.00;;
71878;SDS011;59755;43.834;4.364;2022-08-18T02:37:58;8.52;;;4.70;;
71878;SDS011;59755;43.834;4.364;2022-08-18T02:40:24;8.32;;;4.43;;
71878;SDS011;59755;43.834;4.364;2022-08-18T02:42:50;8.40;;;4.57;;
71878;SDS011;59755;43.834;4.364;2022-08-18T02:45:16;6.65;;;4.18;;
71878;SDS011;59755;43.834;4.364;2022-08-18T02:47:42;6.38;;;4.30;;
71878;SDS011;59755;43.834;4.364;2022-08-18T02:50:09;6.60;;;4.13;;
71878;SDS011;59755;43.834;4.364;2022-08-18T02:52:35;7.32;;;4.28;;
71878;SDS011;59755;43.834;4.364;2022-08-18T02:55:01;7.53;;;4.30;;
71878;SDS011;59755;43.834;4.364;2022-08-18T02:57:28;7.03;;;3.95;;
71878;SDS011;59755;43.834;4.364;2022-08-18T02:59:54;6.95;;;4.00;;
71878;SDS011;59755;43.834;4.364;2022-08-18T03:02:20;6.75;;;3.83;;
71878;SDS011;59755;43.834;4.364;2022-08-18T03:04:46;7.72;;;4.22;;
71878;SDS011;59755;43.834;4.364;2022-08-18T03:07:12;7.57;;;4.40;;
71878;SDS011;59755;43.834;4.364;2022-08-18T03:09:41;7.72;;;4.10;;
71878;SDS011;59755;43.834;4.364;2022-08-18T03:12:07;6.70;;;3.70;;
71878;SDS011;59755;43.834;4.364;2022-08-18T03:14:34;7.07;;;4.10;;
71878;SDS011;59755;43.834;4.364;2022-08-18T03:17:05;7.10;;;4.50;;
71878;SDS011;59755;43.834;4.364;2022-08-18T03:19:32;7.53;;;4.07;;
71878;SDS011;59755;43.834;4.364;2022-08-18T03:21:58;7.75;;;4.28;;
71878;SDS011;59755;43.834;4.364;2022-08-18T03:24:25;8.27;;;4.38;;
71878;SDS011;59755;43.834;4.364;2022-08-18T03:26:52;7.82;;;4.18;;
71878;SDS011;59755;43.834;4.364;2022-08-18T03:29:21;7.13;;;4.70;;
71878;SDS011;59755;43.834;4.364;2022-08-18T03:31:48;7.22;;;4.40;;
71878;SDS011;59755;43.834;4.364;2022-08-18T03:34:14;7.63;;;4.65;;
71878;SDS011;59755;43.834;4.364;2022-08-18T03:36:43;7.68;;;4.93;;
71878;SDS011;59755;43.834;4.364;2022-08-18T03:39:10;8.98;;;4.30;;
71878;SDS011;59755;43.834;4.364;2022-08-18T03:41:38;8.43;;;5.10;;
71878;SDS011;59755;43.834;4.364;2022-08-18T03:44:06;7.97;;;4.75;;
71878;SDS011;59755;43.834;4.364;2022-08-18T03:46:33;7.75;;;4.72;;
71878;SDS011;59755;43.834;4.364;2022-08-18T03:48:59;7.85;;;4.72;;
71878;SDS011;59755;43.834;4.364;2022-08-18T03:51:26;7.85;;;4.93;;
71878;SDS011;59755;43.834;4.364;2022-08-18T03:53:56;9.90;;;4.65;;
71878;SDS011;59755;43.834;4.364;2022-08-18T03:56:30;7.03;;;4.68;;
71878;SDS011;59755;43.834;4.364;2022-08-18T03:59:03;10.52;;;5.40;;
71878;SDS011;59755;43.834;4.364;2022-08-18T04:01:32;8.73;;;5.07;;
71878;SDS011;59755;43.834;4.364;2022-08-18T04:04:03;7.45;;;4.65;;
71878;SDS011;59755;43.834;4.364;2022-08-18T04:06:32;8.57;;;4.70;;
71878;SDS011;59755;43.834;4.364;2022-08-18T04:09:01;7.50;;;4.85;;
71878;SDS011;59755;43.834;4.364;2022-08-18T04:11:30;8.32;;;4.90;;
71878;SDS011;59755;43.834;4.364;2022-08-18T04:13:59;7.68;;;5.30;;
71878;SDS011;59755;43.834;4.364;2022-08-18T04:16:28;8.00;;;4.72;;
71878;SDS011;59755;43.834;4.364;2022-08-18T04:19:02;9.25;;;5.13;;
71878;SDS011;59755;43.834;4.364;2022-08-18T04:21:29;7.60;;;5.00;;
71878;SDS011;59755;43.834;4.364;2022-08-18T04:23:57;7.75;;;4.80;;
71878;SDS011;59755;43.834;4.364;2022-08-18T04:26:29;8.57;;;5.05;;
71878;SDS011;59755;43.834;4.364;2022-08-18T04:28:56;9.30;;;4.95;;
71878;SDS011;59755;43.834;4.364;2022-08-18T04:31:24;7.60;;;4.95;;
71878;SDS011;59755;43.834;4.364;2022-08-18T04:33:51;8.65;;;4.90;;
71878;SDS011;59755;43.834;4.364;2022-08-18T04:36:16;7.22;;;4.50;;
71878;SDS011;59755;43.834;4.364;2022-08-18T04:38:42;8.35;;;5.43;;
71878;SDS011;59755;43.834;4.364;2022-08-18T04:41:11;7.82;;;4.82;;
71878;SDS011;59755;43.834;4.364;2022-08-18T04:43:38;9.45;;;4.85;;
71878;SDS011;59755;43.834;4.364;2022-08-18T04:46:04;7.70;;;4.72;;
71878;SDS011;59755;43.834;4.364;2022-08-18T04:48:31;10.30;;;5.03;;
71878;SDS011;59755;43.834;4.364;2022-08-18T04:53:30;7.90;;;4.63;;
71878;SDS011;59755;43.834;4.364;2022-08-18T04:56:27;7.30;;;4.82;;
71878;SDS011;59755;43.834;4.364;2022-08-18T04:59:04;9.93;;;5.68;;
71878;SDS011;59755;43.834;4.364;2022-08-18T05:01:39;6.88;;;4.05;;
71878;SDS011;59755;43.834;4.364;2022-08-18T05:04:07;7.90;;;3.95;;
71878;SDS011;59755;43.834;4.364;2022-08-18T05:06:34;7.50;;;4.13;;
71878;SDS011;59755;43.834;4.364;2022-08-18T05:09:01;8.70;;;3.95;;
71878;SDS011;59755;43.834;4.364;2022-08-18T05:11:30;7.05;;;3.72;;
71878;SDS011;59755;43.834;4.364;2022-08-18T05:14:00;8.57;;;3.78;;
71878;SDS011;59755;43.834;4.364;2022-08-18T05:16:28;5.30;;;3.28;;
71878;SDS011;59755;43.834;4.364;2022-08-18T05:19:00;8.15;;;3.70;;
71878;SDS011;59755;43.834;4.364;2022-08-18T05:21:30;7.72;;;3.88;;
71878;SDS011;59755;43.834;4.364;2022-08-18T05:23:57;6.35;;;3.22;;
71878;SDS011;59755;43.834;4.364;2022-08-18T05:26:24;7.93;;;3.60;;
71878;SDS011;59755;43.834;4.364;2022-08-18T05:28:52;6.65;;;3.67;;
71878;SDS011;59755;43.834;4.364;2022-08-18T05:31:19;9.75;;;3.92;;
71878;SDS011;59755;43.834;4.364;2022-08-18T05:33:48;6.93;;;3.72;;
71878;SDS011;59755;43.834;4.364;2022-08-18T05:41:34;9.15;;;4.15;;
71878;SDS011;59755;43.834;4.364;2022-08-18T05:44:05;7.03;;;4.15;;
71878;SDS011;59755;43.834;4.364;2022-08-18T05:46:41;7.40;;;4.40;;
71878;SDS011;59755;43.834;4.364;2022-08-18T05:49:19;7.45;;;4.20;;
71878;SDS011;59755;43.834;4.364;2022-08-18T05:52:30;6.88;;;4.32;;
71878;SDS011;59755;43.834;4.364;2022-08-18T05:54:47;8.60;;;4.60;;
71878;SDS011;59755;43.834;4.364;2022-08-18T05:57:44;7.05;;;4.40;;
71878;SDS011;59755;43.834;4.364;2022-08-18T06:00:16;10.30;;;4.90;;
71878;SDS011;59755;43.834;4.364;2022-08-18T06:03:30;7.97;;;4.20;;
71878;SDS011;59755;43.834;4.364;2022-08-18T06:05:52;8.80;;;4.80;;
71878;SDS011;59755;43.834;4.364;2022-08-18T06:10:52;10.68;;;5.13;;
71878;SDS011;59755;43.834;4.364;2022-08-18T06:13:19;9.60;;;4.60;;
71878;SDS011;59755;43.834;4.364;2022-08-18T06:15:51;9.20;;;5.00;;
71878;SDS011;59755;43.834;4.364;2022-08-18T06:18:32;7.97;;;4.93;;
71878;SDS011;59755;43.834;4.364;2022-08-18T06:21:07;9.38;;;4.75;;
71878;SDS011;59755;43.834;4.364;2022-08-18T06:26:43;8.93;;;4.93;;
71878;SDS011;59755;43.834;4.364;2022-08-18T06:29:42;7.13;;;4.55;;
71878;SDS011;59755;43.834;4.364;2022-08-18T06:37:40;8.00;;;4.65;;
71878;SDS011;59755;43.834;4.364;2022-08-18T06:40:28;8.18;;;5.00;;
71878;SDS011;59755;43.834;4.364;2022-08-18T06:43:14;9.35;;;5.35;;
71878;SDS011;59755;43.834;4.364;2022-08-18T06:46:00;8.00;;;4.93;;
71878;SDS011;59755;43.834;4.364;2022-08-18T06:48:36;7.65;;;4.72;;
71878;SDS011;59755;43.834;4.364;2022-08-18T06:51:17;9.45;;;5.13;;
71878;SDS011;59755;43.834;4.364;2022-08-18T06:53:49;9.38;;;5.00;;
71878;SDS011;59755;43.834;4.364;2022-08-18T06:56:52;7.38;;;4.57;;
71878;SDS011;59755;43.834;4.364;2022-08-18T07:02:39;7.60;;;5.28;;
71878;SDS011;59755;43.834;4.364;2022-08-18T07:07:29;9.88;;;5.20;;
71878;SDS011;59755;43.834;4.364;2022-08-18T07:10:06;8.23;;;5.18;;
71878;SDS011;59755;43.834;4.364;2022-08-18T07:15:37;7.87;;;4.53;;
71878;SDS011;59755;43.834;4.364;2022-08-18T07:18:07;8.45;;;4.68;;
71878;SDS011;59755;43.834;4.364;2022-08-18T07:20:41;7.07;;;4.20;;
71878;SDS011;59755;43.834;4.364;2022-08-18T07:28:47;7.25;;;4.22;;
71878;SDS011;59755;43.834;4.364;2022-08-18T07:34:03;9.63;;;4.53;;
71878;SDS011;59755;43.834;4.364;2022-08-18T07:40:06;8.13;;;4.47;;
71878;SDS011;59755;43.834;4.364;2022-08-18T07:42:37;7.57;;;4.53;;
71878;SDS011;59755;43.834;4.364;2022-08-18T07:45:18;8.05;;;4.50;;
71878;SDS011;59755;43.834;4.364;2022-08-18T07:48:41;10.20;;;4.53;;
71878;SDS011;59755;43.834;4.364;2022-08-18T07:53:59;6.32;;;3.75;;
71878;SDS011;59755;43.834;4.364;2022-08-18T08:00:05;9.23;;;4.57;;
71878;SDS011;59755;43.834;4.364;2022-08-18T08:07:50;6.45;;;4.32;;
71878;SDS011;59755;43.834;4.364;2022-08-18T08:21:16;5.88;;;4.15;;
71878;SDS011;59755;43.834;4.364;2022-08-18T08:23:51;8.67;;;4.50;;
71878;SDS011;59755;43.834;4.364;2022-08-18T08:34:21;8.13;;;4.60;;
71878;SDS011;59755;43.834;4.364;2022-08-18T08:36:49;7.75;;;4.40;;
71878;SDS011;59755;43.834;4.364;2022-08-18T08:39:24;7.53;;;4.25;;
71878;SDS011;59755;43.834;4.364;2022-08-18T08:42:20;9.02;;;4.35;;
71878;SDS011;59755;43.834;4.364;2022-08-18T08:45:07;7.13;;;4.18;;
71878;SDS011;59755;43.834;4.364;2022-08-18T08:50:17;7.05;;;4.35;;
71878;SDS011;59755;43.834;4.364;2022-08-18T08:52:49;6.40;;;4.05;;
71878;SDS011;59755;43.834;4.364;2022-08-18T08:55:27;7.05;;;4.68;;
71878;SDS011;59755;43.834;4.364;2022-08-18T09:00:50;6.53;;;4.28;;
71878;SDS011;59755;43.834;4.364;2022-08-18T09:20:56;6.38;;;4.10;;
71878;SDS011;59755;43.834;4.364;2022-08-18T09:23:31;8.00;;;4.57;;
71878;SDS011;59755;43.834;4.364;2022-08-18T09:26:25;7.55;;;4.32;;
71878;SDS011;59755;43.834;4.364;2022-08-18T09:29:13;7.15;;;4.55;;
71878;SDS011;59755;43.834;4.364;2022-08-18T09:31:43;7.00;;;4.38;;
71878;SDS011;59755;43.834;4.364;2022-08-18T09:37:04;7.63;;;4.10;;
71878;SDS011;59755;43.834;4.364;2022-08-18T09:39:34;7.18;;;4.07;;
71878;SDS011;59755;43.834;4.364;2022-08-18T09:42:37;8.82;;;4.80;;
71878;SDS011;59755;43.834;4.364;2022-08-18T09:50:32;7.10;;;4.57;;
71878;SDS011;59755;43.834;4.364;2022-08-18T09:56:17;7.78;;;4.32;;
71878;SDS011;59755;43.834;4.364;2022-08-18T10:02:02;9.30;;;4.68;;
71878;SDS011;59755;43.834;4.364;2022-08-18T10:04:37;6.38;;;4.60;;
71878;SDS011;59755;43.834;4.364;2022-08-18T10:07:20;7.03;;;4.07;;
71878;SDS011;59755;43.834;4.364;2022-08-18T10:10:08;6.28;;;4.00;;
71878;SDS011;59755;43.834;4.364;2022-08-18T10:16:05;7.22;;;4.45;;
71878;SDS011;59755;43.834;4.364;2022-08-18T10:24:17;7.10;;;4.90;;
71878;SDS011;59755;43.834;4.364;2022-08-18T10:42:34;6.40;;;3.97;;
71878;SDS011;59755;43.834;4.364;2022-08-18T10:50:49;8.40;;;3.60;;
71878;SDS011;59755;43.834;4.364;2022-08-18T10:56:00;6.43;;;3.55;;
71878;SDS011;59755;43.834;4.364;2022-08-18T11:06:39;6.53;;;3.40;;
71878;SDS011;59755;43.834;4.364;2022-08-18T11:09:08;5.95;;;3.67;;
71878;SDS011;59755;43.834;4.364;2022-08-18T11:11:39;5.95;;;3.83;;
71878;SDS011;59755;43.834;4.364;2022-08-18T11:20:07;5.57;;;3.25;;
71878;SDS011;59755;43.834;4.364;2022-08-18T11:22:35;6.22;;;3.33;;
71878;SDS011;59755;43.834;4.364;2022-08-18T11:25:02;5.80;;;3.30;;
71878;SDS011;59755;43.834;4.364;2022-08-18T11:27:44;6.53;;;3.83;;
71878;SDS011;59755;43.834;4.364;2022-08-18T11:30:11;6.25;;;3.60;;
71878;SDS011;59755;43.834;4.364;2022-08-18T11:32:37;6.43;;;3.60;;
71878;SDS011;59755;43.834;4.364;2022-08-18T11:37:35;6.40;;;3.65;;
71878;SDS011;59755;43.834;4.364;2022-08-18T11:40:50;5.97;;;3.50;;
71878;SDS011;59755;43.834;4.364;2022-08-18T11:45:26;6.07;;;3.10;;
71878;SDS011;59755;43.834;4.364;2022-08-18T11:50:43;5.85;;;3.03;;
71878;SDS011;59755;43.834;4.364;2022-08-18T11:53:23;5.00;;;2.75;;
71878;SDS011;59755;43.834;4.364;2022-08-18T11:56:15;5.65;;;3.03;;
71878;SDS011;59755;43.834;4.364;2022-08-18T12:01:53;5.57;;;3.20;;
71878;SDS011;59755;43.834;4.364;2022-08-18T12:04:27;5.20;;;3.17;;
71878;SDS011;59755;43.834;4.364;2022-08-18T12:07:10;5.55;;;3.33;;
71878;SDS011;59755;43.834;4.364;2022-08-18T12:09:43;5.72;;;3.40;;
71878;SDS011;59755;43.834;4.364;2022-08-18T12:12:32;5.38;;;3.20;;
71878;SDS011;59755;43.834;4.364;2022-08-18T12:14:59;6.10;;;3.20;;
71878;SDS011;59755;43.834;4.364;2022-08-18T12:17:29;5.88;;;3.00;;
71878;SDS011;59755;43.834;4.364;2022-08-18T12:19:55;5.22;;;3.05;;
71878;SDS011;59755;43.834;4.364;2022-08-18T12:22:29;5.70;;;3.17;;
71878;SDS011;59755;43.834;4.364;2022-08-18T12:24:55;5.95;;;3.33;;
71878;SDS011;59755;43.834;4.364;2022-08-18T12:27:22;6.28;;;3.50;;
71878;SDS011;59755;43.834;4.364;2022-08-18T12:29:49;5.80;;;3.60;;
71878;SDS011;59755;43.834;4.364;2022-08-18T12:32:16;5.68;;;3.45;;
71878;SDS011;59755;43.834;4.364;2022-08-18T12:34:43;6.63;;;3.53;;
71878;SDS011;59755;43.834;4.364;2022-08-18T12:37:10;6.28;;;3.53;;
71878;SDS011;59755;43.834;4.364;2022-08-18T12:39:40;5.93;;;3.60;;
71878;SDS011;59755;43.834;4.364;2022-08-18T12:42:07;5.85;;;3.25;;
71878;SDS011;59755;43.834;4.364;2022-08-18T12:44:33;6.25;;;3.38;;
71878;SDS011;59755;43.834;4.364;2022-08-18T12:47:02;5.53;;;3.20;;
71878;SDS011;59755;43.834;4.364;2022-08-18T12:49:42;5.70;;;3.33;;
71878;SDS011;59755;43.834;4.364;2022-08-18T12:52:08;6.88;;;3.40;;
71878;SDS011;59755;43.834;4.364;2022-08-18T12:54:35;5.63;;;3.10;;
71878;SDS011;59755;43.834;4.364;2022-08-18T12:57:02;5.10;;;3.00;;
71878;SDS011;59755;43.834;4.364;2022-08-18T12:59:31;6.40;;;2.90;;
71878;SDS011;59755;43.834;4.364;2022-08-18T13:01:57;6.25;;;3.05;;
71878;SDS011;59755;43.834;4.364;2022-08-18T13:04:23;6.57;;;3.40;;
71878;SDS011;59755;43.834;4.364;2022-08-18T13:06:50;6.10;;;3.20;;
71878;SDS011;59755;43.834;4.364;2022-08-18T13:09:18;6.57;;;3.20;;
71878;SDS011;59755;43.834;4.364;2022-08-18T13:11:45;6.07;;;3.42;;
71878;SDS011;59755;43.834;4.364;2022-08-18T13:14:11;6.03;;;3.53;;
71878;SDS011;59755;43.834;4.364;2022-08-18T13:16:39;6.13;;;3.03;;
71878;SDS011;59755;43.834;4.364;2022-08-18T13:19:07;5.63;;;3.20;;
71878;SDS011;59755;43.834;4.364;2022-08-18T13:21:33;7.70;;;3.88;;
71878;SDS011;59755;43.834;4.364;2022-08-18T13:24:00;5.97;;;3.20;;
71878;SDS011;59755;43.834;4.364;2022-08-18T13:26:33;5.95;;;3.13;;
71878;SDS011;59755;43.834;4.364;2022-08-18T13:29:01;7.15;;;3.15;;
71878;SDS011;59755;43.834;4.364;2022-08-18T13:31:27;6.28;;;3.20;;
71878;SDS011;59755;43.834;4.364;2022-08-18T13:33:53;6.15;;;3.55;;
71878;SDS011;59755;43.834;4.364;2022-08-18T13:36:23;5.55;;;3.28;;
71878;SDS011;59755;43.834;4.364;2022-08-18T13:38:51;5.43;;;3.13;;
71878;SDS011;59755;43.834;4.364;2022-08-18T13:41:18;5.97;;;3.60;;
71878;SDS011;59755;43.834;4.364;2022-08-18T13:43:45;6.22;;;3.45;;
71878;SDS011;59755;43.834;4.364;2022-08-18T13:46:13;5.43;;;3.38;;
71878;SDS011;59755;43.834;4.364;2022-08-18T13:48:41;5.75;;;3.33;;
71878;SDS011;59755;43.834;4.364;2022-08-18T13:51:08;5.30;;;3.00;;
71878;SDS011;59755;43.834;4.364;2022-08-18T13:56:05;5.63;;;3.47;;
71878;SDS011;59755;43.834;4.364;2022-08-18T13:58:31;6.32;;;3.60;;
71878;SDS011;59755;43.834;4.364;2022-08-18T14:00:58;5.78;;;3.15;;
71878;SDS011;59755;43.834;4.364;2022-08-18T14:03:26;6.40;;;3.50;;
71878;SDS011;59755;43.834;4.364;2022-08-18T14:05:52;5.65;;;3.15;;
71878;SDS011;59755;43.834;4.364;2022-08-18T14:08:22;5.25;;;3.05;;
71878;SDS011;59755;43.834;4.364;2022-08-18T14:10:50;5.70;;;3.30;;
71878;SDS011;59755;43.834;4.364;2022-08-18T14:13:18;7.78;;;3.30;;
71878;SDS011;59755;43.834;4.364;2022-08-18T14:15:45;7.50;;;3.22;;
71878;SDS011;59755;43.834;4.364;2022-08-18T14:18:11;6.07;;;3.40;;
71878;SDS011;59755;43.834;4.364;2022-08-18T14:20:38;7.00;;;3.40;;
71878;SDS011;59755;43.834;4.364;2022-08-18T14:23:22;5.68;;;3.10;;
71878;SDS011;59755;43.834;4.364;2022-08-18T14:26:06;6.07;;;3.38;;
71878;SDS011;59755;43.834;4.364;2022-08-18T14:28:50;7.22;;;3.45;;
71878;SDS011;59755;43.834;4.364;2022-08-18T14:31:16;5.53;;;2.78;;
71878;SDS011;59755;43.834;4.364;2022-08-18T14:33:43;5.65;;;3.10;;
71878;SDS011;59755;43.834;4.364;2022-08-18T14:36:10;6.85;;;3.17;;
71878;SDS011;59755;43.834;4.364;2022-08-18T14:38:37;6.30;;;3.42;;
71878;SDS011;59755;43.834;4.364;2022-08-18T14:41:03;5.35;;;3.13;;
71878;SDS011;59755;43.834;4.364;2022-08-18T14:43:32;7.45;;;3.20;;
71878;SDS011;59755;43.834;4.364;2022-08-18T14:46:00;5.68;;;3.20;;
71878;SDS011;59755;43.834;4.364;2022-08-18T14:48:29;7.05;;;3.30;;
71878;SDS011;59755;43.834;4.364;2022-08-18T14:50:56;6.90;;;3.60;;
71878;SDS011;59755;43.834;4.364;2022-08-18T14:53:25;6.32;;;3.63;;
71878;SDS011;59755;43.834;4.364;2022-08-18T14:55:53;6.60;;;3.60;;
71878;SDS011;59755;43.834;4.364;2022-08-18T14:58:24;6.20;;;3.70;;
71878;SDS011;59755;43.834;4.364;2022-08-18T15:01:10;5.90;;;3.83;;
71878;SDS011;59755;43.834;4.364;2022-08-18T15:03:37;5.90;;;3.60;;
71878;SDS011;59755;43.834;4.364;2022-08-18T15:06:04;6.15;;;4.00;;
71878;SDS011;59755;43.834;4.364;2022-08-18T15:08:32;6.10;;;3.70;;
71878;SDS011;59755;43.834;4.364;2022-08-18T15:10:59;5.88;;;3.90;;
71878;SDS011;59755;43.834;4.364;2022-08-18T15:13:25;6.18;;;3.83;;
71878;SDS011;59755;43.834;4.364;2022-08-18T15:15:51;7.32;;;3.78;;
71878;SDS011;59755;43.834;4.364;2022-08-18T15:18:17;5.95;;;3.42;;
71878;SDS011;59755;43.834;4.364;2022-08-18T15:20:43;5.45;;;3.45;;
71878;SDS011;59755;43.834;4.364;2022-08-18T15:23:27;6.47;;;3.78;;
71878;SDS011;59755;43.834;4.364;2022-08-18T15:26:11;6.50;;;3.75;;
71878;SDS011;59755;43.834;4.364;2022-08-18T15:28:41;6.85;;;3.42;;
71878;SDS011;59755;43.834;4.364;2022-08-18T15:31:07;7.43;;;3.50;;
71878;SDS011;59755;43.834;4.364;2022-08-18T15:33:33;6.10;;;3.47;;
71878;SDS011;59755;43.834;4.364;2022-08-18T15:35:59;6.00;;;3.50;;
71878;SDS011;59755;43.834;4.364;2022-08-18T15:38:28;6.07;;;3.47;;
71878;SDS011;59755;43.834;4.364;2022-08-18T15:40:56;6.47;;;3.40;;
71878;SDS011;59755;43.834;4.364;2022-08-18T15:43:24;5.93;;;3.38;;
71878;SDS011;59755;43.834;4.364;2022-08-18T15:45:51;6.63;;;3.78;;
71878;SDS011;59755;43.834;4.364;2022-08-18T15:48:18;6.88;;;3.47;;
71878;SDS011;59755;43.834;4.364;2022-08-18T15:50:46;6.22;;;3.40;;
71878;SDS011;59755;43.834;4.364;2022-08-18T15:53:13;6.65;;;3.60;;
71878;SDS011;59755;43.834;4.364;2022-08-18T15:55:41;8.02;;;3.83;;
71878;SDS011;59755;43.834;4.364;2022-08-18T15:58:08;8.50;;;3.72;;
71878;SDS011;59755;43.834;4.364;2022-08-18T16:00:35;5.57;;;3.35;;
71878;SDS011;59755;43.834;4.364;2022-08-18T16:03:02;6.38;;;3.53;;
71878;SDS011;59755;43.834;4.364;2022-08-18T16:05:31;6.90;;;3.25;;
71878;SDS011;59755;43.834;4.364;2022-08-18T16:07:59;6.22;;;3.95;;
71878;SDS011;59755;43.834;4.364;2022-08-18T16:10:26;5.47;;;3.40;;
71878;SDS011;59755;43.834;4.364;2022-08-18T16:12:57;5.93;;;3.65;;
71878;SDS011;59755;43.834;4.364;2022-08-18T16:15:25;5.70;;;3.70;;
71878;SDS011;59755;43.834;4.364;2022-08-18T16:17:52;5.80;;;3.60;;
71878;SDS011;59755;43.834;4.364;2022-08-18T16:20:19;5.68;;;3.65;;
71878;SDS011;59755;43.834;4.364;2022-08-18T16:22:48;5.93;;;3.90;;
71878;SDS011;59755;43.834;4.364;2022-08-18T16:25:14;5.97;;;3.63;;
71878;SDS011;59755;43.834;4.364;2022-08-18T16:27:41;5.53;;;3.30;;
71878;SDS011;59755;43.834;4.364;2022-08-18T16:30:08;5.80;;;3.40;;
71878;SDS011;59755;43.834;4.364;2022-08-18T16:32:36;5.70;;;3.50;;
71878;SDS011;59755;43.834;4.364;2022-08-18T16:35:02;5.85;;;3.83;;
71878;SDS011;59755;43.834;4.364;2022-08-18T16:37:29;6.00;;;4.05;;
71878;SDS011;59755;43.834;4.364;2022-08-18T16:39:54;6.20;;;3.55;;
71878;SDS011;59755;43.834;4.364;2022-08-18T16:42:20;6.32;;;3.92;;
71878;SDS011;59755;43.834;4.364;2022-08-18T16:44:47;5.80;;;3.47;;
71878;SDS011;59755;43.834;4.364;2022-08-18T16:47:13;5.60;;;3.50;;
71878;SDS011;59755;43.834;4.364;2022-08-18T16:49:41;5.68;;;3.67;;
71878;SDS011;59755;43.834;4.364;2022-08-18T16:52:12;5.35;;;3.55;;
71878;SDS011;59755;43.834;4.364;2022-08-18T16:54:39;6.28;;;3.70;;
71878;SDS011;59755;43.834;4.364;2022-08-18T16:57:06;5.65;;;3.20;;
71878;SDS011;59755;43.834;4.364;2022-08-18T16:59:32;5.53;;;3.38;;
71878;SDS011;59755;43.834;4.364;2022-08-18T17:02:16;5.90;;;3.30;;
71878;SDS011;59755;43.834;4.364;2022-08-18T17:05:00;5.60;;;3.58;;
71878;SDS011;59755;43.834;4.364;2022-08-18T17:07:30;5.60;;;3.30;;
71878;SDS011;59755;43.834;4.364;2022-08-18T17:09:58;6.38;;;3.42;;
71878;SDS011;59755;43.834;4.364;2022-08-18T17:12:24;6.15;;;3.42;;
71878;SDS011;59755;43.834;4.364;2022-08-18T17:14:51;5.78;;;3.33;;
71878;SDS011;59755;43.834;4.364;2022-08-18T17:17:18;6.03;;;3.33;;
71878;SDS011;59755;43.834;4.364;2022-08-18T17:19:45;6.18;;;3.58;;
71878;SDS011;59755;43.834;4.364;2022-08-18T17:22:12;7.00;;;3.60;;
71878;SDS011;59755;43.834;4.364;2022-08-18T17:24:39;5.70;;;3.22;;
71878;SDS011;59755;43.834;4.364;2022-08-18T17:27:16;6.05;;;3.33;;
71878;SDS011;59755;43.834;4.364;2022-08-18T17:32:39;6.93;;;3.60;;
71878;SDS011;59755;43.834;4.364;2022-08-18T17:35:20;7.20;;;3.28;;
71878;SDS011;59755;43.834;4.364;2022-08-18T17:38:00;6.40;;;3.47;;
71878;SDS011;59755;43.834;4.364;2022-08-18T17:40:39;6.38;;;3.33;;
71878;SDS011;59755;43.834;4.364;2022-08-18T17:43:10;5.38;;;3.20;;
71878;SDS011;59755;43.834;4.364;2022-08-18T17:45:42;8.02;;;3.67;;
71878;SDS011;59755;43.834;4.364;2022-08-18T17:48:13;6.22;;;3.30;;
71878;SDS011;59755;43.834;4.364;2022-08-18T17:50:46;6.70;;;3.28;;
71878;SDS011;59755;43.834;4.364;2022-08-18T17:53:41;6.13;;;3.72;;
71878;SDS011;59755;43.834;4.364;2022-08-18T17:56:14;7.10;;;3.50;;
71878;SDS011;59755;43.834;4.364;2022-08-18T18:01:21;6.57;;;3.45;;
71878;SDS011;59755;43.834;4.364;2022-08-18T18:03:49;5.70;;;3.50;;
71878;SDS011;59755;43.834;4.364;2022-08-18T18:08:55;6.55;;;3.30;;